Time;durP1;ratioP1;P1;durP2;ratioP2;P2;SDS_P1;SDS_P2;PMS_P1;PMS_P2;Temp;Humidity;BMP_temperature;BMP_pressure;BME280_temperature;BME280_humidity;BME280_pressure;Samples;Min_cycle;Max_cycle;Signal;HPM_P1;HPM_P2
2023/07/20 07:19:10;;;;;;;;;8.33;8.33;;;;;-145.45;100.00;57426.63;4925013;23;46902;-70
2023/07/20 07:21:35;;;;;;;;;10.00;8.33;;;;;-145.45;100.00;57426.63;4911474;28;45238;-69
2023/07/20 07:24:00;;;;;;;;;10.00;9.00;;;;;-145.45;100.00;57426.63;4919997;28;45379;-69
2023/07/20 07:26:26;;;;;;;;;10.67;9.00;;;;;-145.45;100.00;57426.63;4918879;28;45281;-70
2023/07/20 07:28:51;;;;;;;;;9.33;9.33;;;;;-145.45;100.00;57426.63;4918799;28;45481;-70
2023/07/20 07:31:17;;;;;;;;;6.33;6.33;;;;;-145.45;100.00;57426.63;4918363;28;45656;-70
2023/07/20 07:33:42;;;;;;;;;6.00;5.33;;;;;-145.45;100.00;57426.63;4920246;28;46413;-70
2023/07/20 07:36:08;;;;;;;;;9.67;6.67;;;;;-145.45;100.00;57426.63;4902847;28;45323;-70
2023/07/20 07:38:33;;;;;;;;;6.67;6.67;;;;;-145.45;100.00;57426.63;4921825;28;45410;-70
2023/07/20 07:40:59;;;;;;;;;7.00;7.00;;;;;-145.45;100.00;57426.63;4919171;28;54465;-70
2023/07/20 07:43:24;;;;;;;;;8.00;8.00;;;;;-145.45;100.00;57426.63;4904918;28;46600;-71
2023/07/20 07:45:50;;;;;;;;;10.00;7.00;;;;;-145.45;100.00;57426.63;4922684;28;46664;-70
2023/07/20 07:48:15;;;;;;;;;9.67;9.00;;;;;-145.45;100.00;57426.63;4921506;28;45461;-70
2023/07/20 07:50:41;;;;;;;;;6.00;4.67;;;;;-145.45;100.00;57426.63;4922708;28;45482;-70
2023/07/20 07:53:08;;;;;;;;;11.67;8.67;;;;;-145.45;100.00;57426.63;4921399;28;45582;-70
2023/07/20 07:55:34;;;;;;;;;10.00;7.00;;;;;-145.45;100.00;57426.63;4923013;28;45444;-70
2023/07/20 07:58:00;;;;;;;;;7.33;6.33;;;;;-145.45;100.00;57426.63;4921754;28;45474;-70
2023/07/20 08:00:26;;;;;;;;;8.00;7.00;;;;;-145.45;100.00;57426.63;4922380;28;51146;-70
2023/07/20 08:02:51;;;;;;;;;10.00;8.67;;;;;-145.45;100.00;57426.63;4919721;28;45260;-70
2023/07/20 08:05:17;;;;;;;;;8.67;7.67;;;;;-145.45;100.00;57426.63;4914222;28;45162;-70
2023/07/20 08:07:43;;;;;;;;;9.00;8.00;;;;;-145.45;100.00;57426.63;4917901;28;45414;-70
2023/07/20 08:10:08;;;;;;;;;12.00;9.50;;;;;-145.45;100.00;57426.63;4914196;28;45408;-71
2023/07/20 08:12:34;;;;;;;;;10.25;8.75;;;;;-145.45;100.00;57426.63;4919729;28;45586;-71
2023/07/20 08:14:59;;;;;;;;;8.75;7.00;;;;;-145.45;100.00;57426.63;4915373;28;52518;-71
2023/07/20 08:17:24;;;;;;;;;7.75;7.50;;;;;-145.45;100.00;57426.63;4920723;28;45831;-71
2023/07/20 08:19:50;;;;;;;;;8.00;6.75;;;;;-145.45;100.00;57426.63;4916377;28;45465;-71
2023/07/20 08:22:15;;;;;;;;;7.25;7.00;;;;;-145.45;100.00;57426.63;4919638;28;52274;-70
2023/07/20 08:24:42;;;;;;;;;7.75;6.25;;;;;-145.45;100.00;57426.63;4917544;28;45324;-71
2023/07/20 08:27:08;;;;;;;;;9.50;7.00;;;;;-145.45;100.00;57426.63;4920568;28;45380;-71
2023/07/20 08:29:34;;;;;;;;;5.25;5.25;;;;;-145.45;100.00;57426.63;4919354;28;45254;-71
2023/07/20 08:32:00;;;;;;;;;6.00;6.00;;;;;-145.45;100.00;57426.63;4903400;28;47335;-71
2023/07/20 08:34:25;;;;;;;;;6.50;5.25;;;;;-145.45;100.00;57426.63;4919855;28;45249;-71
2023/07/20 08:36:50;;;;;;;;;5.50;5.50;;;;;-145.45;100.00;57426.63;4921794;28;45515;-71
2023/07/20 08:39:16;;;;;;;;;7.25;5.75;;;;;-145.45;100.00;57426.63;4920091;28;45572;-71
2023/07/20 08:41:43;;;;;;;;;6.00;5.75;;;;;-145.45;100.00;57426.63;4903910;28;46699;-71
2023/07/20 08:44:10;;;;;;;;;6.50;6.50;;;;;-145.45;100.00;57426.63;4921269;28;45585;-70
2023/07/20 08:46:38;;;;;;;;;7.00;5.00;;;;;-145.45;100.00;57426.63;4921109;28;45527;-71
2023/07/20 08:49:04;;;;;;;;;5.00;5.00;;;;;-145.45;100.00;57426.63;4921568;28;45654;-70
2023/07/20 08:51:30;;;;;;;;;6.50;5.25;;;;;-145.45;100.00;57426.63;4921538;28;46328;-71
2023/07/20 08:53:56;;;;;;;;;4.75;3.25;;;;;-145.45;100.00;57426.63;4914786;28;45502;-70
2023/07/20 08:56:24;;;;;;;;;6.25;5.00;;;;;-145.45;100.00;57426.63;4922161;28;45466;-69
2023/07/20 08:58:52;;;;;;;;;4.00;4.00;;;;;-145.45;100.00;57426.63;4915669;28;45280;-69
2023/07/20 09:01:20;;;;;;;;;4.00;3.75;;;;;-145.45;100.00;57426.63;4921859;28;45679;-69
2023/07/20 09:03:46;;;;;;;;;3.20;2.00;;;;;-145.45;100.00;57426.63;4899215;28;45479;-69
2023/07/20 09:06:12;;;;;;;;;6.00;3.00;;;;;-145.45;100.00;57426.63;4921991;28;45233;-70
2023/07/20 09:08:41;;;;;;;;;4.00;4.00;;;;;-145.45;100.00;57426.63;4918204;28;45395;-69
2023/07/20 09:11:06;;;;;;;;;6.00;4.00;;;;;-145.45;100.00;57426.63;4904439;28;48330;-69
2023/07/20 09:13:33;;;;;;;;;7.25;4.50;;;;;-145.45;100.00;57426.63;4916858;28;45432;-70
2023/07/20 09:15:59;;;;;;;;;7.60;2.40;;;;;-145.45;100.00;57426.63;4921675;28;45299;-69
2023/07/20 09:18:25;;;;;;;;;3.75;2.50;;;;;-145.45;100.00;57426.63;4912939;28;45511;-69
2023/07/20 09:20:51;;;;;;;;;3.40;3.40;;;;;-145.45;100.00;57426.63;4903307;28;47243;-69
2023/07/20 09:23:16;;;;;;;;;3.25;2.25;;;;;-145.45;100.00;57426.63;4902351;28;46039;-69
2023/07/20 09:25:42;;;;;;;;;5.25;4.00;;;;;-145.45;100.00;57426.63;4921616;28;45397;-69
2023/07/20 09:28:07;;;;;;;;;3.50;3.50;;;;;-145.45;100.00;57426.63;4919424;28;45346;-69
2023/07/20 09:30:32;;;;;;;;;2.00;2.00;;;;;-145.45;100.00;57426.63;4921101;28;45477;-69
2023/07/20 09:32:58;;;;;;;;;3.25;2.75;;;;;-145.45;100.00;57426.63;4902739;28;45491;-70
2023/07/20 09:35:24;;;;;;;;;1.80;1.80;;;;;-145.45;100.00;57426.63;4919875;28;45439;-69
2023/07/20 09:38:00;;;;;;;;;1.50;1.50;;;;;-145.45;100.00;57426.63;4916632;28;45240;-69
2023/07/20 09:40:28;;;;;;;;;3.40;2.20;;;;;-145.45;100.00;57426.63;4912622;28;45372;-70
2023/07/20 09:43:02;;;;;;;;;3.20;3.20;;;;;-145.45;100.00;57426.63;4918194;28;45392;-69
2023/07/20 09:45:30;;;;;;;;;3.60;2.20;;;;;-145.45;100.00;57426.63;4912707;28;45482;-69
2023/07/20 09:48:03;;;;;;;;;3.60;2.20;;;;;-145.45;100.00;57426.63;4920017;28;45213;-70
2023/07/20 09:50:28;;;;;;;;;2.60;2.60;;;;;-145.45;100.00;57426.63;4920923;28;45433;-70
2023/07/20 09:52:54;;;;;;;;;1.25;1.25;;;;;-145.45;100.00;57426.63;4920510;28;45431;-70
2023/07/20 09:55:21;;;;;;;;;1.75;1.75;;;;;-145.45;100.00;57426.63;4903706;28;45313;-70
2023/07/20 09:57:47;;;;;;;;;2.40;2.40;;;;;-145.45;100.00;57426.63;4919531;28;46600;-70
2023/07/20 10:00:13;;;;;;;;;4.80;2.20;;;;;-145.45;100.00;57426.63;4921045;28;45467;-70
2023/07/20 10:02:44;;;;;;;;;2.80;2.80;;;;;-145.45;100.00;57426.63;4919923;28;45392;-70
2023/07/20 10:05:12;;;;;;;;;3.40;2.80;;;;;-145.45;100.00;57426.63;4921499;28;45232;-70
2023/07/20 10:07:43;;;;;;;;;3.00;1.60;;;;;-145.45;100.00;57426.63;4920412;28;45607;-70
2023/07/20 10:10:10;;;;;;;;;2.60;2.40;;;;;-145.45;100.00;57426.63;4919811;28;46348;-70
2023/07/20 10:12:37;;;;;;;;;2.00;2.00;;;;;-145.45;100.00;57426.63;4919798;28;45487;-70
2023/07/20 10:15:17;;;;;;;;;3.20;1.80;;;;;-145.45;100.00;57426.63;4914176;28;45446;-70
2023/07/20 10:18:08;;;;;;;;;2.00;2.00;;;;;-145.45;100.00;57426.63;4918279;28;45430;-71
2023/07/20 10:20:36;;;;;;;;;2.60;2.20;;;;;-145.45;100.00;57426.63;4920426;28;45512;-71
2023/07/20 10:23:02;;;;;;;;;4.60;3.40;;;;;-145.45;100.00;57426.63;4902721;28;45324;-70
2023/07/20 10:25:28;;;;;;;;;3.80;2.40;;;;;-145.45;100.00;57426.63;4920823;28;45549;-70
2023/07/20 10:27:55;;;;;;;;;3.50;2.50;;;;;-145.45;100.00;57426.63;4917092;28;45380;-70
2023/07/20 10:30:20;;;;;;;;;2.00;2.00;;;;;-145.45;100.00;57426.63;4920425;28;46707;-70
2023/07/20 10:32:47;;;;;;;;;2.00;2.00;;;;;-145.45;100.00;57426.63;4917357;28;45418;-71
2023/07/20 10:35:14;;;;;;;;;1.20;1.20;;;;;-145.45;100.00;57426.63;4903849;28;45397;-71
2023/07/20 10:37:59;;;;;;;;;3.60;2.00;;;;;-145.45;100.00;57426.63;4918716;28;45478;-70
2023/07/20 10:40:28;;;;;;;;;0.80;0.20;;;;;-145.45;100.00;57426.63;4916203;28;46551;-69
2023/07/20 10:43:01;;;;;;;;;1.80;1.80;;;;;-145.45;100.00;57426.63;4915693;28;45424;-70
2023/07/20 10:45:41;;;;;;;;;0.20;0.20;;;;;-145.45;100.00;57426.63;4898296;28;45358;-72
2023/07/20 10:48:14;;;;;;;;;0.60;0.60;;;;;-145.45;100.00;57426.63;4915772;28;45222;-71
2023/07/20 10:50:40;;;;;;;;;1.00;1.00;;;;;-145.45;100.00;57426.63;4916314;28;45381;-70
2023/07/20 10:53:16;;;;;;;;;1.40;1.20;;;;;-145.45;100.00;57426.63;4917519;28;45331;-71
2023/07/20 10:55:43;;;;;;;;;1.00;1.00;;;;;-145.45;100.00;57426.63;4915188;28;45297;-70
2023/07/20 10:58:14;;;;;;;;;2.40;1.00;;;;;-145.45;100.00;57426.63;4919260;28;45513;-71
2023/07/20 11:01:00;;;;;;;;;0.40;0.40;;;;;-145.45;100.00;57426.63;4918513;28;45277;-71
2023/07/20 11:03:31;;;;;;;;;0.20;0.20;;;;;-145.45;100.00;57426.63;4902257;28;45266;-71
2023/07/20 11:05:58;;;;;;;;;1.20;0.20;;;;;-145.45;100.00;57426.63;4920614;28;45671;-71
2023/07/20 11:08:42;;;;;;;;;0.00;0.00;;;;;-145.45;100.00;57426.63;4920420;28;45425;-71
2023/07/20 11:11:27;;;;;;;;;2.60;0.20;;;;;-145.45;100.00;57426.63;4917863;28;45310;-71
2023/07/20 11:14:00;;;;;;;;;0.20;0.20;;;;;-145.45;100.00;57426.63;4901985;28;45697;-70
2023/07/20 11:16:43;;;;;;;;;0.00;0.00;;;;;-145.45;100.00;57426.63;4923894;28;45332;-71
2023/07/20 11:19:17;;;;;;;;;0.00;0.00;;;;;-145.45;100.00;57426.63;4920974;28;45486;-72
2023/07/20 11:21:44;;;;;;;;;10.80;6.80;;;;;-145.45;100.00;57426.63;4918312;28;46582;-72
2023/07/20 11:24:11;;;;;;;;;1.40;1.40;;;;;-145.45;100.00;57426.63;4916846;28;45465;-71
2023/07/20 11:26:49;;;;;;;;;0.40;0.40;;;;;-145.45;100.00;57426.63;4905705;28;45348;-70
2023/07/20 11:29:19;;;;;;;;;1.80;1.00;;;;;-145.45;100.00;57426.63;4918527;28;45487;-71
2023/07/20 11:31:46;;;;;;;;;0.00;0.00;;;;;-145.45;100.00;57426.63;4922191;28;46377;-70
2023/07/20 11:34:13;;;;;;;;;0.00;0.00;;;;;-145.45;100.00;57426.63;4908449;28;45295;-72
2023/07/20 11:36:47;;;;;;;;;0.40;0.00;;;;;-145.45;100.00;57426.63;4903908;28;45253;-71
2023/07/20 11:39:14;;;;;;;;;0.20;0.20;;;;;-145.45;100.00;57426.63;4919735;28;45294;-72
2023/07/20 11:41:47;;;;;;;;;2.00;1.00;;;;;-145.45;100.00;57426.63;4922523;28;45351;-71
2023/07/20 11:44:15;;;;;;;;;0.00;0.00;;;;;-145.45;100.00;57426.63;4916207;28;45455;-71
2023/07/20 11:46:44;;;;;;;;;0.00;0.00;;;;;-145.45;100.00;57426.63;4897118;28;45306;-71
2023/07/20 11:49:10;;;;;;;;;0.20;0.20;;;;;-145.45;100.00;57426.63;4913567;28;45451;-71
2023/07/20 11:51:37;;;;;;;;;1.00;0.25;;;;;-145.45;100.00;57426.63;4922465;28;45346;-71
2023/07/20 11:54:04;;;;;;;;;0.00;0.00;;;;;-145.45;100.00;57426.63;4904827;28;45748;-71
2023/07/20 11:56:30;;;;;;;;;0.00;0.00;;;;;-145.45;100.00;57426.63;4923050;28;45172;-71
2023/07/20 11:58:59;;;;;;;;;0.00;0.00;;;;;-145.45;100.00;57426.63;4918889;28;45522;-72
2023/07/20 12:01:28;;;;;;;;;0.00;0.00;;;;;-145.45;100.00;57426.63;4923002;28;45566;-72
2023/07/20 12:03:55;;;;;;;;;0.20;0.20;;;;;-145.45;100.00;57426.63;4921647;28;45403;-72
2023/07/20 12:06:23;;;;;;;;;0.00;0.00;;;;;-145.45;100.00;57426.63;4923376;28;45343;-71
2023/07/20 12:08:48;;;;;;;;;0.00;0.00;;;;;-145.45;100.00;57426.63;4921550;28;45490;-72
2023/07/20 12:11:14;;;;;;;;;1.50;1.50;;;;;-145.45;100.00;57426.63;4922720;28;45492;-72
2023/07/20 12:13:46;;;;;;;;;1.25;1.25;;;;;-145.45;100.00;57426.63;4904569;28;46136;-72
2023/07/20 12:16:16;;;;;;;;;0.20;0.00;;;;;-145.45;100.00;57426.63;4918627;28;45305;-71
2023/07/20 12:18:45;;;;;;;;;0.80;0.20;;;;;-145.45;100.00;57426.63;4901111;28;45510;-72
2023/07/20 12:21:11;;;;;;;;;0.20;0.20;;;;;-145.45;100.00;57426.63;4902620;28;45382;-71
2023/07/20 12:23:41;;;;;;;;;0.00;0.00;;;;;-145.45;100.00;57426.63;4902650;28;45439;-72
2023/07/20 12:26:09;;;;;;;;;0.00;0.00;;;;;-145.45;100.00;57426.63;4903619;28;45455;-71
2023/07/20 12:28:39;;;;;;;;;0.00;0.00;;;;;-145.45;100.00;57426.63;4899429;28;45396;-72
2023/07/20 12:31:06;;;;;;;;;0.00;0.00;;;;;-145.45;100.00;57426.63;4900135;29;46414;-72
2023/07/20 12:33:31;;;;;;;;;0.00;0.00;;;;;-145.45;100.00;57426.63;4900590;28;45538;-71
2023/07/20 12:35:58;;;;;;;;;0.00;0.00;;;;;-145.45;100.00;57426.63;4903604;28;45372;-71
2023/07/20 12:38:24;;;;;;;;;1.00;1.00;;;;;-145.45;100.00;57426.63;4900644;29;45359;-71
2023/07/20 12:40:50;;;;;;;;;1.80;0.40;;;;;-145.45;100.00;57426.63;4901759;29;45570;-71
2023/07/20 12:43:15;;;;;;;;;0.00;0.00;;;;;-145.45;100.00;57426.63;4897998;29;45261;-71
2023/07/20 12:45:41;;;;;;;;;1.75;0.00;;;;;-145.45;100.00;57426.63;4900781;29;45240;-71
2023/07/20 12:48:06;;;;;;;;;0.00;0.00;;;;;-145.45;100.00;57426.63;4898872;28;45418;-71
2023/07/20 12:50:32;;;;;;;;;1.75;0.25;;;;;-145.45;100.00;57426.63;4899110;29;56889;-71
2023/07/20 12:52:57;;;;;;;;;0.50;0.50;;;;;-145.45;100.00;57426.63;4899936;29;45422;-71
2023/07/20 12:55:22;;;;;;;;;0.50;0.50;;;;;-145.45;100.00;57426.63;4901051;29;45249;-72
2023/07/20 12:57:48;;;;;;;;;0.00;0.00;;;;;-145.45;100.00;57426.63;4900389;28;45240;-71
2023/07/20 13:00:14;;;;;;;;;0.75;0.00;;;;;-145.45;100.00;57426.63;4901875;28;45641;-71
2023/07/20 13:02:39;;;;;;;;;0.00;0.00;;;;;-145.45;100.00;57426.63;4897286;29;45517;-71
2023/07/20 13:05:05;;;;;;;;;0.00;0.00;;;;;-145.45;100.00;57426.63;4903146;28;45339;-71
2023/07/20 13:07:36;;;;;;;;;0.00;0.00;;;;;-145.45;100.00;57426.63;4899768;29;46056;-71
2023/07/20 13:10:02;;;;;;;;;0.00;0.00;;;;;-145.45;100.00;57426.63;4902089;29;45383;-71
2023/07/20 13:12:29;;;;;;;;;0.00;0.00;;;;;-145.45;100.00;57426.63;4901828;28;45331;-71
2023/07/20 13:14:56;;;;;;;;;0.00;0.00;;;;;-145.45;100.00;57426.63;4900948;29;45331;-71
2023/07/20 13:17:22;;;;;;;;;0.40;0.40;;;;;-145.45;100.00;57426.63;4898130;29;46783;-71
2023/07/20 13:19:47;;;;;;;;;1.20;0.00;;;;;-145.45;100.00;57426.63;4902557;28;45360;-71
2023/07/20 13:22:14;;;;;;;;;1.00;1.00;;;;;-145.45;100.00;57426.63;4902077;29;45413;-71
2023/07/20 13:24:40;;;;;;;;;1.80;0.60;;;;;-145.45;100.00;57426.63;4898748;28;45471;-71
2023/07/20 13:27:06;;;;;;;;;0.50;0.25;;;;;-145.45;100.00;57426.63;4901549;28;45489;-71
2023/07/20 13:29:32;;;;;;;;;0.50;0.00;;;;;-145.45;100.00;57426.63;4899362;28;45568;-71
2023/07/20 13:31:57;;;;;;;;;0.80;0.80;;;;;-145.45;100.00;57426.63;4901246;29;45299;-71
2023/07/20 13:34:23;;;;;;;;;1.00;1.00;;;;;-145.45;100.00;57426.63;4900885;29;45262;-71
2023/07/20 13:36:49;;;;;;;;;0.40;0.40;;;;;-145.45;100.00;57426.63;4901285;28;45595;-71
2023/07/20 13:39:14;;;;;;;;;1.75;0.75;;;;;-145.45;100.00;57426.63;4901396;28;45489;-72
2023/07/20 13:41:39;;;;;;;;;0.25;0.25;;;;;-145.45;100.00;57426.63;4900510;29;45357;-71
2023/07/20 13:44:05;;;;;;;;;0.00;0.00;;;;;-145.45;100.00;57426.63;4900967;29;45449;-70
2023/07/20 13:46:30;;;;;;;;;0.75;0.50;;;;;-145.45;100.00;57426.63;4901913;29;45510;-71
2023/07/20 13:48:55;;;;;;;;;0.25;0.25;;;;;-145.45;100.00;57426.63;4895941;28;47196;-71
2023/07/20 13:51:21;;;;;;;;;1.00;1.00;;;;;-145.45;100.00;57426.63;4900771;29;45451;-71
2023/07/20 13:53:47;;;;;;;;;1.00;0.00;;;;;-145.45;100.00;57426.63;4898492;28;45462;-71
2023/07/20 13:56:13;;;;;;;;;0.00;0.00;;;;;-145.45;100.00;57426.63;4901003;29;45466;-71
2023/07/20 13:58:39;;;;;;;;;0.00;0.00;;;;;-145.45;100.00;57426.63;4899117;28;46129;-70
2023/07/20 14:01:04;;;;;;;;;1.00;1.00;;;;;-145.45;100.00;57426.63;4902242;29;45281;-70
2023/07/20 14:03:29;;;;;;;;;1.25;1.25;;;;;-145.45;100.00;57426.63;4901201;29;45742;-71
2023/07/20 14:05:56;;;;;;;;;0.00;0.00;;;;;-145.45;100.00;57426.63;4899597;29;45464;-71
2023/07/20 14:08:22;;;;;;;;;0.80;0.80;;;;;-145.45;100.00;57426.63;4901188;28;46585;-70
2023/07/20 14:10:47;;;;;;;;;1.00;1.00;;;;;-145.45;100.00;57426.63;4901893;28;45217;-71
2023/07/20 14:13:12;;;;;;;;;1.25;1.25;;;;;-145.45;100.00;57426.63;4897269;28;45288;-71
2023/07/20 14:15:38;;;;;;;;;1.00;1.00;;;;;-145.45;100.00;57426.63;4898676;29;46515;-71
2023/07/20 14:18:04;;;;;;;;;0.40;0.00;;;;;-145.45;100.00;57426.63;4899731;29;45317;-70
2023/07/20 14:20:29;;;;;;;;;0.50;0.50;;;;;-145.45;100.00;57426.63;4901928;28;45347;-70
2023/07/20 14:22:54;;;;;;;;;1.00;1.00;;;;;-145.45;100.00;57426.63;4898853;28;45485;-71
2023/07/20 14:25:20;;;;;;;;;2.50;0.50;;;;;-145.45;100.00;57426.63;4898748;29;48464;-71
2023/07/20 14:27:45;;;;;;;;;0.75;0.75;;;;;-145.45;100.00;57426.63;4899791;28;48890;-71
2023/07/20 14:30:11;;;;;;;;;0.75;0.00;;;;;-145.45;100.00;57426.63;4898908;29;45880;-71
2023/07/20 14:32:36;;;;;;;;;2.20;1.20;;;;;-145.45;100.00;57426.63;4900443;28;45466;-71
2023/07/20 14:35:02;;;;;;;;;1.00;1.00;;;;;-145.45;100.00;57426.63;4892336;29;45648;-71
2023/07/20 14:37:27;;;;;;;;;0.25;0.00;;;;;-145.45;100.00;57426.63;4900878;29;45502;-71
2023/07/20 14:39:52;;;;;;;;;0.00;0.00;;;;;-145.45;100.00;57426.63;4893379;28;45313;-71
2023/07/20 14:42:18;;;;;;;;;0.75;0.75;;;;;-145.45;100.00;57426.63;4899165;28;45263;-70
2023/07/20 14:44:44;;;;;;;;;1.50;1.50;;;;;-145.45;100.00;57426.63;4902350;29;45291;-71
2023/07/20 14:47:09;;;;;;;;;0.75;0.75;;;;;-145.45;100.00;57426.63;4903797;29;45207;-70
2023/07/20 14:49:34;;;;;;;;;1.25;1.25;;;;;-145.45;100.00;57426.63;4905082;29;48056;-73
2023/07/20 14:52:00;;;;;;;;;0.25;0.25;;;;;-145.45;100.00;57426.63;4904167;29;45320;-72
2023/07/20 14:54:25;;;;;;;;;1.25;1.25;;;;;-145.45;100.00;57426.63;4905033;28;45479;-73
2023/07/20 14:56:54;;;;;;;;;1.00;1.00;;;;;-145.45;100.00;57426.63;4903900;28;46352;-71
2023/07/20 14:59:20;;;;;;;;;0.00;0.00;;;;;-145.45;100.00;57426.63;4903437;29;45544;-71
2023/07/20 15:01:46;;;;;;;;;0.00;0.00;;;;;-145.45;100.00;57426.63;4902895;29;45840;-71
2023/07/20 15:04:12;;;;;;;;;3.00;2.00;;;;;-145.45;100.00;57426.63;4904321;29;45284;-71
2023/07/20 15:06:38;;;;;;;;;2.20;1.40;;;;;-145.45;100.00;57426.63;4903847;28;45583;-71
2023/07/20 15:09:03;;;;;;;;;2.25;1.25;;;;;-145.45;100.00;57426.63;4904091;28;49534;-71
2023/07/20 15:11:29;;;;;;;;;1.00;1.00;;;;;-145.45;100.00;57426.63;4903711;28;45241;-71
2023/07/20 15:13:54;;;;;;;;;2.50;2.50;;;;;-145.45;100.00;57426.63;4902477;29;45328;-71
2023/07/20 15:16:20;;;;;;;;;2.00;2.00;;;;;-145.45;100.00;57426.63;4902787;29;46793;-71
2023/07/20 15:18:45;;;;;;;;;1.50;1.50;;;;;-145.45;100.00;57426.63;4901947;28;45432;-71
2023/07/20 15:21:11;;;;;;;;;2.00;2.00;;;;;-145.45;100.00;57426.63;4902501;29;45549;-71
2023/07/20 15:23:37;;;;;;;;;1.20;1.20;;;;;-145.45;100.00;57426.63;4903863;28;46151;-71
2023/07/20 15:26:03;;;;;;;;;2.00;2.00;;;;;-145.45;100.00;57426.63;4904147;29;46820;-71
2023/07/20 15:28:28;;;;;;;;;3.00;3.00;;;;;-145.45;100.00;57426.63;4896976;28;45244;-72
2023/07/20 15:31:01;;;;;;;;;2.25;2.25;;;;;-145.45;100.00;57426.63;4902549;29;45612;-71
2023/07/20 15:33:26;;;;;;;;;1.20;1.20;;;;;-145.45;100.00;57426.63;4896419;29;45395;-71
2023/07/20 15:35:52;;;;;;;;;4.00;4.00;;;;;-145.45;100.00;57426.63;4902487;29;45405;-72
2023/07/20 15:38:18;;;;;;;;;2.75;2.75;;;;;-145.45;100.00;57426.63;4901936;29;45251;-71
2023/07/20 15:40:43;;;;;;;;;1.25;1.25;;;;;-145.45;100.00;57426.63;4904385;28;45265;-71
2023/07/20 15:43:09;;;;;;;;;1.25;0.50;;;;;-145.45;100.00;57426.63;4899455;28;45475;-71
2023/07/20 15:45:35;;;;;;;;;1.75;1.75;;;;;-145.45;100.00;57426.63;4891363;28;46315;-71
2023/07/20 15:48:00;;;;;;;;;3.00;1.25;;;;;-145.45;100.00;57426.63;4897585;28;45436;-71
2023/07/20 15:50:25;;;;;;;;;2.25;0.50;;;;;-145.45;100.00;57426.63;4886890;29;45315;-71
2023/07/20 15:52:51;;;;;;;;;1.00;1.00;;;;;-145.45;100.00;57426.63;4892159;29;47836;-71
2023/07/20 15:55:16;;;;;;;;;2.00;2.00;;;;;-145.45;100.00;57426.63;4893685;28;45359;-71
2023/07/20 15:57:41;;;;;;;;;1.50;1.00;;;;;-145.45;100.00;57426.63;4902553;28;45409;-71
2023/07/20 16:00:10;;;;;;;;;1.00;1.00;;;;;-145.45;100.00;57426.63;4893292;29;45350;-71
2023/07/20 16:02:37;;;;;;;;;0.00;0.00;;;;;-145.45;100.00;57426.63;4898779;29;45777;-71
2023/07/20 16:05:03;;;;;;;;;0.80;0.80;;;;;-145.45;100.00;57426.63;4891926;29;47423;-72
2023/07/20 16:07:28;;;;;;;;;1.20;0.80;;;;;-145.45;100.00;57426.63;4897491;29;45418;-71
2023/07/20 16:09:53;;;;;;;;;2.00;2.00;;;;;-145.45;100.00;57426.63;4901363;29;45705;-71
2023/07/20 16:12:25;;;;;;;;;0.75;0.00;;;;;-145.45;100.00;57426.63;4902810;28;46046;-71
2023/07/20 16:14:51;;;;;;;;;0.60;0.60;;;;;-145.45;100.00;57426.63;4903276;28;46264;-72
2023/07/20 16:17:17;;;;;;;;;0.60;0.20;;;;;-145.45;100.00;57426.63;4901110;29;45413;-71
2023/07/20 16:19:42;;;;;;;;;0.50;0.50;;;;;-145.45;100.00;57426.63;4901487;29;45403;-71
2023/07/20 16:22:11;;;;;;;;;1.00;1.00;;;;;-145.45;100.00;57426.63;4903210;28;45310;-71
2023/07/20 16:24:37;;;;;;;;;1.00;1.00;;;;;-145.45;100.00;57426.63;4903262;28;45318;-71
2023/07/20 16:27:03;;;;;;;;;0.25;0.25;;;;;-145.45;100.00;57426.63;4902774;28;45454;-71
2023/07/20 16:29:29;;;;;;;;;2.60;0.60;;;;;-145.45;100.00;57426.63;4903466;29;45374;-71
2023/07/20 16:31:54;;;;;;;;;1.00;1.00;;;;;-145.45;100.00;57426.63;4902355;28;45143;-71
2023/07/20 16:34:20;;;;;;;;;0.25;0.25;;;;;-145.45;100.00;57426.63;4903010;29;46398;-71
2023/07/20 16:36:45;;;;;;;;;0.75;0.75;;;;;-145.45;100.00;57426.63;4902561;28;45519;-71
2023/07/20 16:39:10;;;;;;;;;1.25;1.25;;;;;-145.45;100.00;57426.63;4903188;28;45811;-71
2023/07/20 16:41:36;;;;;;;;;1.00;1.00;;;;;-145.45;100.00;57426.63;4902735;28;45384;-71
2023/07/20 16:44:01;;;;;;;;;1.50;1.50;;;;;-145.45;100.00;57426.63;4902283;29;45561;-71
2023/07/20 16:46:27;;;;;;;;;2.00;2.00;;;;;-145.45;100.00;57426.63;4901318;28;45203;-72
2023/07/20 16:48:52;;;;;;;;;2.25;1.00;;;;;-145.45;100.00;57426.63;4896744;28;45375;-71
2023/07/20 16:51:17;;;;;;;;;1.00;1.00;;;;;-145.45;100.00;57426.63;4900941;29;46046;-70
2023/07/20 16:53:43;;;;;;;;;0.50;0.50;;;;;-145.45;100.00;57426.63;4899773;28;46542;-71
2023/07/20 16:56:08;;;;;;;;;1.25;1.25;;;;;-145.45;100.00;57426.63;4893030;29;45357;-70
2023/07/20 16:58:34;;;;;;;;;1.50;1.00;;;;;-145.45;100.00;57426.63;4901290;28;45969;-71
2023/07/20 17:01:07;;;;;;;;;1.50;1.50;;;;;-145.45;100.00;57426.63;4893588;29;46655;-72
2023/07/20 17:03:34;;;;;;;;;1.60;1.60;;;;;-145.45;100.00;57426.63;4901846;28;45596;-71
2023/07/20 17:06:02;;;;;;;;;3.80;3.80;;;;;-145.45;100.00;57426.63;4902709;28;45412;-71
2023/07/20 17:08:27;;;;;;;;;0.80;0.80;;;;;-145.45;100.00;57426.63;4900968;29;45330;-70
2023/07/20 17:10:53;;;;;;;;;1.25;1.25;;;;;-145.45;100.00;57426.63;4901584;29;45631;-71
2023/07/20 17:13:19;;;;;;;;;3.00;2.00;;;;;-145.45;100.00;57426.63;4901948;28;45474;-72
2023/07/20 17:15:48;;;;;;;;;0.00;0.00;;;;;-145.45;100.00;57426.63;4901340;29;45270;-70
2023/07/20 17:18:14;;;;;;;;;1.40;1.40;;;;;-145.45;100.00;57426.63;4908376;28;45376;-71
2023/07/20 17:20:40;;;;;;;;;0.60;0.60;;;;;-145.45;100.00;57426.63;4921785;28;45531;-70
2023/07/20 17:23:05;;;;;;;;;1.00;1.00;;;;;-145.45;100.00;57426.63;4917463;28;45467;-72
2023/07/20 17:25:31;;;;;;;;;1.25;1.25;;;;;-145.45;100.00;57426.63;4916582;28;47971;-71
2023/07/20 17:27:57;;;;;;;;;3.25;0.75;;;;;-145.45;100.00;57426.63;4903903;28;45494;-71
2023/07/20 17:30:24;;;;;;;;;1.75;1.75;;;;;-145.45;100.00;57426.63;4921595;28;45493;-71
2023/07/20 17:32:52;;;;;;;;;1.40;1.40;;;;;-145.45;100.00;57426.63;4919002;28;45487;-71
2023/07/20 17:35:18;;;;;;;;;2.80;1.40;;;;;-145.45;100.00;57426.63;4917471;28;45332;-70
2023/07/20 17:37:43;;;;;;;;;1.25;1.25;;;;;-145.45;100.00;57426.63;4917095;28;45272;-72
2023/07/20 17:40:10;;;;;;;;;1.25;1.25;;;;;-145.45;100.00;57426.63;4910461;28;48479;-71
2023/07/20 17:42:37;;;;;;;;;3.75;1.00;;;;;-145.45;100.00;57426.63;4916399;28;45374;-72
2023/07/20 17:45:03;;;;;;;;;1.00;1.00;;;;;-145.45;100.00;57426.63;4908798;28;45331;-72
2023/07/20 17:47:28;;;;;;;;;3.00;3.00;;;;;-145.45;100.00;57426.63;4918315;28;45511;-71
2023/07/20 17:49:54;;;;;;;;;3.00;1.25;;;;;-145.45;100.00;57426.63;4913717;28;51635;-71
2023/07/20 17:52:20;;;;;;;;;3.25;3.25;;;;;-145.45;100.00;57426.63;4919770;28;54083;-71
2023/07/20 17:54:46;;;;;;;;;0.00;0.00;;;;;-145.45;100.00;57426.63;4912752;28;45218;-71
2023/07/20 17:57:11;;;;;;;;;2.50;1.25;;;;;-145.45;100.00;57426.63;4920789;28;45226;-71
2023/07/20 17:59:38;;;;;;;;;3.00;1.75;;;;;-145.45;100.00;57426.63;4914116;28;45321;-70
2023/07/20 18:02:04;;;;;;;;;2.00;2.00;;;;;-145.45;100.00;57426.63;4919362;28;45786;-69
2023/07/20 18:04:30;;;;;;;;;1.40;1.00;;;;;-145.45;100.00;57426.63;4915945;28;45452;-70
2023/07/20 18:06:55;;;;;;;;;2.00;2.00;;;;;-145.45;100.00;57426.63;4903092;28;45797;-70
2023/07/20 18:09:20;;;;;;;;;0.75;0.75;;;;;-145.45;100.00;57426.63;4903391;28;56524;-70
2023/07/20 18:11:46;;;;;;;;;6.00;5.75;;;;;-145.45;100.00;57426.63;4920450;28;46208;-70
2023/07/20 18:14:11;;;;;;;;;3.00;3.00;;;;;-145.45;100.00;57426.63;4918089;28;45353;-70
2023/07/20 18:16:36;;;;;;;;;5.50;4.00;;;;;-145.45;100.00;57426.63;4903057;28;45487;-70
2023/07/20 18:19:01;;;;;;;;;3.50;2.25;;;;;-145.45;100.00;57426.63;4917514;28;49828;-70
2023/07/20 18:21:27;;;;;;;;;1.25;1.25;;;;;-145.45;100.00;57426.63;4903387;28;47027;-71
2023/07/20 18:23:52;;;;;;;;;2.00;2.00;;;;;-145.45;100.00;57426.63;4912007;28;45447;-72
2023/07/20 18:26:18;;;;;;;;;1.00;1.00;;;;;-145.45;100.00;57426.63;4920352;28;45325;-72